Time;durP1;ratioP1;P1;durP2;ratioP2;P2;SDS_P1;SDS_P2;PMS_P1;PMS_P2;Temp;Humidity;BMP_temperature;BMP_pressure;BME280_temperature;BME280_humidity;BME280_pressure;Samples;Min_cycle;Max_cycle;Signal;HPM_P1;HPM_P2
2024/01/27 00:01:35;;;;;;;9.80;2.65;;;5.80;80.70;;;;;;5026860;28;20441;-68
2024/01/27 00:04:01;;;;;;;9.30;1.70;;;5.80;80.80;;;;;;5020539;28;20029;-68
2024/01/27 00:06:27;;;;;;;1.85;1.58;;;5.80;80.90;;;;;;5022191;28;20829;-68
2024/01/27 00:08:53;;;;;;;5.47;2.45;;;5.80;81.10;;;;;;5021786;28;20132;-68
2024/01/27 00:11:20;;;;;;;6.40;1.63;;;5.80;81.10;;;;;;5020208;28;20017;-68
2024/01/27 00:13:46;;;;;;;4.45;2.25;;;5.80;81.10;;;;;;5025759;28;20513;-68
2024/01/27 00:16:12;;;;;;;4.13;1.33;;;5.80;81.00;;;;;;5030023;28;20729;-68
2024/01/27 00:18:38;;;;;;;3.78;1.60;;;5.90;80.90;;;;;;5024041;28;20033;-66
2024/01/27 00:21:05;;;;;;;4.03;0.98;;;5.90;81.00;;;;;;5028607;28;20091;-70
2024/01/27 00:23:32;;;;;;;2.50;1.17;;;5.80;80.80;;;;;;5039931;28;20539;-68
2024/01/27 00:25:58;;;;;;;2.28;1.52;;;5.80;80.80;;;;;;5027918;28;20033;-70
2024/01/27 00:28:24;;;;;;;6.18;1.80;;;5.90;80.90;;;;;;5025574;28;20298;-70
2024/01/27 00:30:50;;;;;;;7.45;2.25;;;5.90;81.00;;;;;;5031452;28;20361;-67
2024/01/27 00:33:16;;;;;;;1.35;1.08;;;5.80;81.10;;;;;;5028744;28;20025;-67
2024/01/27 00:35:43;;;;;;;2.45;1.40;;;5.80;81.30;;;;;;5030583;28;20148;-67
2024/01/27 00:38:09;;;;;;;8.90;2.28;;;5.80;81.30;;;;;;5027097;28;20497;-67
2024/01/27 00:40:35;;;;;;;8.82;2.42;;;5.80;81.30;;;;;;5028255;28;20491;-69
2024/01/27 00:43:03;;;;;;;4.05;2.03;;;5.80;81.60;;;;;;5024308;28;20117;-66
2024/01/27 00:45:30;;;;;;;3.65;1.70;;;5.70;81.50;;;;;;5023454;28;20377;-69
2024/01/27 00:47:56;;;;;;;12.48;2.25;;;5.70;81.50;;;;;;5015453;28;20026;-66
2024/01/27 00:50:22;;;;;;;4.40;1.75;;;5.70;81.50;;;;;;5027186;28;20420;-69
2024/01/27 00:52:48;;;;;;;8.48;2.05;;;5.70;81.60;;;;;;5034334;28;20404;-69
2024/01/27 00:55:14;;;;;;;2.22;1.15;;;5.70;81.60;;;;;;5022672;28;20471;-66
2024/01/27 00:57:40;;;;;;;2.92;1.55;;;5.70;81.50;;;;;;5024804;28;20037;-67
2024/01/27 01:00:08;;;;;;;2.38;1.00;;;5.70;81.40;;;;;;5004673;28;20041;-68
2024/01/27 01:02:37;;;;;;;3.33;1.48;;;5.80;81.40;;;;;;5024217;28;20033;-68
2024/01/27 01:05:04;;;;;;;3.72;1.77;;;5.80;81.40;;;;;;5018863;28;20030;-67
2024/01/27 01:07:30;;;;;;;9.43;2.28;;;5.80;81.30;;;;;;5042086;28;20024;-67
2024/01/27 01:09:56;;;;;;;4.50;2.30;;;5.80;81.30;;;;;;5038643;28;20063;-66
2024/01/27 01:12:22;;;;;;;6.30;1.38;;;5.80;81.20;;;;;;5041465;28;20484;-67
2024/01/27 01:14:48;;;;;;;2.13;1.60;;;5.80;81.20;;;;;;5033782;28;20504;-67
2024/01/27 01:17:13;;;;;;;3.67;1.55;;;5.70;81.20;;;;;;5042034;28;20025;-67
2024/01/27 01:19:40;;;;;;;7.07;1.83;;;5.70;81.20;;;;;;5036593;28;20087;-66
2024/01/27 01:22:07;;;;;;;2.15;1.33;;;5.70;81.30;;;;;;5031893;28;20690;-67
2024/01/27 01:24:33;;;;;;;6.05;1.33;;;5.70;81.20;;;;;;5034594;28;20046;-68
2024/01/27 01:26:59;;;;;;;8.38;1.63;;;5.70;81.20;;;;;;5034265;28;20591;-68
2024/01/27 01:29:25;;;;;;;5.80;2.05;;;5.70;81.30;;;;;;5039689;28;20060;-68
2024/01/27 01:31:50;;;;;;;3.50;1.30;;;5.70;81.30;;;;;;5033603;28;20537;-67
2024/01/27 01:34:16;;;;;;;4.50;1.52;;;5.60;81.20;;;;;;5034450;28;20035;-67
2024/01/27 01:36:42;;;;;;;7.55;1.80;;;5.60;81.30;;;;;;5033703;28;20036;-67
2024/01/27 01:39:10;;;;;;;3.70;1.15;;;5.60;81.30;;;;;;5034262;28;20033;-68
2024/01/27 01:41:36;;;;;;;3.55;1.50;;;5.50;81.20;;;;;;5031982;28;20037;-68
2024/01/27 01:44:02;;;;;;;4.13;1.88;;;5.50;81.20;;;;;;5034632;28;20412;-68
2024/01/27 01:46:28;;;;;;;2.25;1.45;;;5.50;81.20;;;;;;5037062;28;20030;-68
2024/01/27 01:48:54;;;;;;;2.85;1.40;;;5.40;81.20;;;;;;5032014;28;20057;-68
2024/01/27 01:51:20;;;;;;;1.90;1.38;;;5.40;81.20;;;;;;5031054;28;20503;-68
2024/01/27 01:53:49;;;;;;;2.10;1.50;;;5.40;81.10;;;;;;5036625;28;20417;-68
2024/01/27 01:56:15;;;;;;;1.63;1.25;;;5.40;81.10;;;;;;5032712;28;20064;-68
2024/01/27 01:58:41;;;;;;;2.65;1.45;;;5.30;81.00;;;;;;5047271;28;20496;-68
2024/01/27 02:01:07;;;;;;;2.10;1.15;;;5.40;81.10;;;;;;5038925;28;20466;-68
2024/01/27 02:03:33;;;;;;;3.38;1.50;;;5.40;81.10;;;;;;5041524;28;20029;-68
2024/01/27 02:05:59;;;;;;;3.88;1.58;;;5.30;80.90;;;;;;5041018;28;20021;-66
2024/01/27 02:08:25;;;;;;;5.43;1.42;;;5.30;80.90;;;;;;5045122;28;20037;-66
2024/01/27 02:10:50;;;;;;;2.28;1.13;;;5.30;80.90;;;;;;5033956;28;20063;-67
2024/01/27 02:13:21;;;;;;;2.65;1.92;;;5.20;80.70;;;;;;5040276;28;20025;-67
2024/01/27 02:15:48;;;;;;;1.73;0.93;;;5.10;80.80;;;;;;5035009;28;20128;-66
2024/01/27 02:18:14;;;;;;;2.00;1.15;;;5.10;80.80;;;;;;5035327;28;20490;-66
2024/01/27 02:20:40;;;;;;;4.28;1.83;;;5.00;80.90;;;;;;5032865;28;20033;-66
2024/01/27 02:23:06;;;;;;;2.97;1.60;;;5.00;80.70;;;;;;5030822;28;20436;-67
2024/01/27 02:25:32;;;;;;;6.15;1.48;;;4.90;80.80;;;;;;5027717;28;20050;-67
2024/01/27 02:27:58;;;;;;;4.43;1.50;;;4.90;80.80;;;;;;5033138;28;20040;-68
2024/01/27 02:30:23;;;;;;;6.25;0.82;;;4.90;80.90;;;;;;5029457;28;20136;-67
2024/01/27 02:32:49;;;;;;;2.70;1.48;;;4.80;80.70;;;;;;5044605;28;20076;-66
2024/01/27 02:35:16;;;;;;;3.35;1.60;;;4.70;80.60;;;;;;5036197;28;20113;-66
2024/01/27 02:37:42;;;;;;;1.55;1.25;;;4.70;80.70;;;;;;5031879;28;20126;-67
2024/01/27 02:40:12;;;;;;;4.57;1.88;;;4.70;80.70;;;;;;5033798;28;20106;-67
2024/01/27 02:42:38;;;;;;;2.70;1.13;;;4.70;81.40;;;;;;5036802;28;20045;-66
2024/01/27 02:45:04;;;;;;;2.85;1.30;;;4.60;80.80;;;;;;5035249;28;20030;-68
2024/01/27 02:47:30;;;;;;;3.65;2.05;;;4.60;80.70;;;;;;5033684;28;20028;-68
2024/01/27 02:49:56;;;;;;;3.58;1.77;;;4.60;80.50;;;;;;5033798;28;20421;-68
2024/01/27 02:52:22;;;;;;;1.33;1.23;;;4.50;80.50;;;;;;5032043;28;20053;-68
2024/01/27 02:54:48;;;;;;;4.07;1.30;;;4.50;80.50;;;;;;5031939;28;20032;-68
2024/01/27 02:57:15;;;;;;;3.72;2.03;;;4.50;80.60;;;;;;5036964;28;20029;-68
2024/01/27 02:59:41;;;;;;;5.95;2.38;;;4.40;80.50;;;;;;5036067;28;20121;-68
2024/01/27 03:02:06;;;;;;;3.40;1.83;;;4.40;80.50;;;;;;5030441;28;20116;-68
2024/01/27 03:04:32;;;;;;;3.53;1.80;;;4.40;80.60;;;;;;5029068;28;20065;-68
2024/01/27 03:06:58;;;;;;;5.72;2.00;;;4.40;80.50;;;;;;5035374;28;20480;-66
2024/01/27 03:09:23;;;;;;;7.55;1.70;;;4.30;80.40;;;;;;5032503;28;20021;-66
2024/01/27 03:11:49;;;;;;;1.98;1.13;;;4.30;80.40;;;;;;5037767;28;20059;-66
2024/01/27 03:14:15;;;;;;;2.92;1.40;;;4.30;80.50;;;;;;5036135;28;20338;-67
2024/01/27 03:16:41;;;;;;;1.95;1.08;;;4.30;80.60;;;;;;5036500;28;20404;-66
2024/01/27 03:19:07;;;;;;;1.75;1.50;;;4.20;80.50;;;;;;5030517;28;20602;-66
2024/01/27 03:21:33;;;;;;;1.95;1.42;;;4.20;80.40;;;;;;5038017;28;20033;-66
2024/01/27 03:23:59;;;;;;;2.90;1.60;;;4.20;80.50;;;;;;5036357;28;20054;-67
2024/01/27 03:26:24;;;;;;;2.85;1.80;;;4.20;80.50;;;;;;5040289;28;20033;-67
2024/01/27 03:28:50;;;;;;;2.05;1.23;;;4.20;80.60;;;;;;5035001;28;20029;-66
2024/01/27 03:31:16;;;;;;;1.30;0.90;;;4.10;80.50;;;;;;5038631;28;20021;-67
2024/01/27 03:33:42;;;;;;;1.88;1.17;;;4.10;80.40;;;;;;5034190;28;20061;-66
2024/01/27 03:36:12;;;;;;;2.22;1.50;;;4.10;80.50;;;;;;5037663;28;20397;-66
2024/01/27 03:38:39;;;;;;;3.45;1.90;;;4.10;80.50;;;;;;5031587;28;20550;-68
2024/01/27 03:41:05;;;;;;;2.90;1.50;;;4.10;80.50;;;;;;5037549;28;20033;-66
2024/01/27 03:43:31;;;;;;;3.05;1.40;;;4.10;80.50;;;;;;5039460;28;20148;-66
2024/01/27 03:46:00;;;;;;;2.80;1.73;;;4.10;80.60;;;;;;5030536;28;20040;-66
2024/01/27 03:48:25;;;;;;;2.17;1.73;;;4.10;80.60;;;;;;5032842;28;20029;-68
2024/01/27 03:50:51;;;;;;;5.07;1.55;;;4.10;80.60;;;;;;5035578;28;20389;-68
2024/01/27 03:53:17;;;;;;;2.05;1.60;;;4.00;80.60;;;;;;5031053;28;20018;-68
2024/01/27 03:55:43;;;;;;;9.77;1.55;;;4.00;80.60;;;;;;5031766;28;20036;-66
2024/01/27 03:58:08;;;;;;;4.85;1.58;;;4.00;80.60;;;;;;5033817;28;20399;-67
2024/01/27 04:00:34;;;;;;;5.55;1.52;;;4.00;80.60;;;;;;5036849;28;20033;-67
2024/01/27 04:03:00;;;;;;;2.28;1.23;;;4.00;80.60;;;;;;5028749;28;20033;-67
2024/01/27 04:05:28;;;;;;;3.95;1.55;;;4.00;80.60;;;;;;5036575;28;20485;-67
2024/01/27 04:07:54;;;;;;;5.45;1.42;;;4.00;80.70;;;;;;5039881;28;20017;-68
2024/01/27 04:10:20;;;;;;;2.35;1.50;;;4.00;80.70;;;;;;5031910;28;20034;-68
2024/01/27 04:12:46;;;;;;;5.57;1.50;;;4.00;80.70;;;;;;5031886;28;20056;-68
2024/01/27 04:15:13;;;;;;;1.17;1.08;;;4.00;80.70;;;;;;5061403;28;20114;-67
2024/01/27 04:17:39;;;;;;;3.15;1.35;;;4.00;80.60;;;;;;5036379;28;20024;-67
2024/01/27 04:20:06;;;;;;;1.58;1.48;;;3.90;80.50;;;;;;5038221;28;20036;-67
2024/01/27 04:22:33;;;;;;;5.70;2.00;;;3.90;80.60;;;;;;5044471;28;20033;-67
2024/01/27 04:24:59;;;;;;;4.82;1.60;;;3.90;80.70;;;;;;5037271;28;20049;-67
2024/01/27 04:27:26;;;;;;;1.65;1.10;;;3.90;80.50;;;;;;5032965;28;20037;-67
2024/01/27 04:29:52;;;;;;;2.38;1.27;;;3.90;80.50;;;;;;5033341;28;20090;-67
2024/01/27 04:32:18;;;;;;;2.05;1.48;;;3.90;80.50;;;;;;5027688;28;20026;-68
2024/01/27 04:34:43;;;;;;;1.58;1.13;;;3.80;80.50;;;;;;5031278;28;20040;-67
2024/01/27 04:37:09;;;;;;;8.30;1.65;;;3.80;80.40;;;;;;5032863;28;20026;-67
2024/01/27 04:39:35;;;;;;;21.38;2.08;;;3.80;80.40;;;;;;5034225;28;20045;-68
2024/01/27 04:42:01;;;;;;;1.52;1.17;;;3.80;80.50;;;;;;5033124;28;20084;-68
2024/01/27 04:44:27;;;;;;;2.53;1.63;;;3.70;80.60;;;;;;5032289;28;20132;-67
2024/01/27 04:46:52;;;;;;;3.28;1.52;;;3.70;81.20;;;;;;5032878;28;20100;-67
2024/01/27 04:49:18;;;;;;;4.35;1.88;;;3.70;80.50;;;;;;5035361;28;20036;-67
2024/01/27 04:51:44;;;;;;;2.78;1.30;;;3.70;80.60;;;;;;5033780;28;20112;-67
2024/01/27 04:54:10;;;;;;;1.48;1.30;;;3.70;81.20;;;;;;5036255;28;20029;-67
2024/01/27 04:56:36;;;;;;;3.22;1.88;;;3.70;80.50;;;;;;5034946;28;20104;-67
2024/01/27 04:59:02;;;;;;;1.98;1.35;;;3.60;80.50;;;;;;5036911;28;20488;-67
2024/01/27 05:01:28;;;;;;;4.57;1.65;;;3.70;80.60;;;;;;5038583;28;20034;-67
2024/01/27 05:03:54;;;;;;;5.13;2.42;;;3.60;80.30;;;;;;5042824;28;20028;-67
2024/01/27 05:06:19;;;;;;;3.08;1.88;;;3.60;80.50;;;;;;5033838;28;20025;-67
2024/01/27 05:08:45;;;;;;;4.20;1.42;;;3.60;80.50;;;;;;5032491;28;20477;-67
2024/01/27 05:11:11;;;;;;;2.35;1.25;;;3.60;80.50;;;;;;5032241;28;20543;-67
2024/01/27 05:13:39;;;;;;;8.40;1.50;;;3.50;80.50;;;;;;5039290;28;20041;-68
2024/01/27 05:16:05;;;;;;;2.70;1.45;;;3.50;80.50;;;;;;5034919;28;20026;-67
2024/01/27 05:18:31;;;;;;;5.70;1.88;;;3.50;80.50;;;;;;5029725;28;20053;-67
2024/01/27 05:20:57;;;;;;;3.25;2.05;;;3.50;80.50;;;;;;5035565;28;20388;-66
2024/01/27 05:23:23;;;;;;;6.25;1.40;;;3.50;80.60;;;;;;5041457;28;20040;-66
2024/01/27 05:25:49;;;;;;;2.03;1.75;;;3.50;80.60;;;;;;5067619;28;20029;-67
2024/01/27 05:28:15;;;;;;;4.07;2.40;;;3.50;80.70;;;;;;5045638;28;20021;-67
2024/01/27 05:30:41;;;;;;;4.18;2.58;;;3.50;80.70;;;;;;5030929;28;20033;-67
2024/01/27 05:33:07;;;;;;;5.28;1.88;;;3.60;80.70;;;;;;5020356;28;20033;-67
2024/01/27 05:35:33;;;;;;;17.17;2.92;;;3.60;80.80;;;;;;5029854;28;20172;-67
2024/01/27 05:37:58;;;;;;;5.63;2.03;;;3.60;80.80;;;;;;5036988;28;20400;-68
2024/01/27 05:40:24;;;;;;;6.07;1.92;;;3.70;80.90;;;;;;5036233;28;20041;-68
2024/01/27 05:42:50;;;;;;;5.70;2.15;;;3.70;80.80;;;;;;5037406;28;20108;-68
2024/01/27 05:45:16;;;;;;;3.50;2.00;;;3.70;80.70;;;;;;5034169;28;20034;-68
2024/01/27 05:47:41;;;;;;;6.47;2.85;;;3.70;80.80;;;;;;5059230;28;20114;-68
2024/01/27 05:50:08;;;;;;;3.03;1.63;;;3.70;80.90;;;;;;5039955;28;20037;-68
2024/01/27 05:52:37;;;;;;;4.03;2.22;;;3.70;80.90;;;;;;5035830;28;20056;-68
2024/01/27 05:55:06;;;;;;;3.30;2.85;;;3.70;80.90;;;;;;5030080;28;20079;-68
2024/01/27 05:57:32;;;;;;;5.38;1.92;;;3.70;80.90;;;;;;5039912;28;20045;-68
2024/01/27 05:59:57;;;;;;;4.93;1.92;;;3.60;81.00;;;;;;5040805;28;20512;-68
2024/01/27 06:02:23;;;;;;;2.72;1.75;;;3.60;81.00;;;;;;5033420;28;20084;-68
2024/01/27 06:04:49;;;;;;;7.07;2.38;;;3.50;81.00;;;;;;5031524;28;20044;-67
2024/01/27 06:07:15;;;;;;;2.05;1.60;;;3.50;81.10;;;;;;5032030;28;20061;-67
2024/01/27 06:09:40;;;;;;;6.13;2.47;;;3.50;81.10;;;;;;5039403;28;20026;-67
2024/01/27 06:12:06;;;;;;;2.65;2.13;;;3.50;81.20;;;;;;5031643;28;20036;-68
2024/01/27 06:14:32;;;;;;;4.78;2.20;;;3.50;81.10;;;;;;5046990;28;20059;-68
2024/01/27 06:16:58;;;;;;;4.95;2.33;;;3.50;81.10;;;;;;5031781;28;20033;-68
2024/01/27 06:19:23;;;;;;;4.25;1.65;;;3.50;81.10;;;;;;5037095;28;20032;-68
2024/01/27 06:21:49;;;;;;;3.50;2.13;;;3.40;81.10;;;;;;5033053;28;20033;-68
2024/01/27 06:24:15;;;;;;;4.22;2.25;;;3.40;81.10;;;;;;5033688;28;20103;-67
2024/01/27 06:26:41;;;;;;;6.90;2.20;;;3.40;81.00;;;;;;5034674;28;20041;-68
2024/01/27 06:29:06;;;;;;;3.58;1.80;;;3.40;81.10;;;;;;5045435;28;20025;-68
2024/01/27 06:31:32;;;;;;;5.72;3.40;;;3.40;81.10;;;;;;5039250;28;20029;-68
2024/01/27 06:33:57;;;;;;;4.25;2.90;;;3.40;81.10;;;;;;5042409;28;20029;-68
2024/01/27 06:36:24;;;;;;;3.50;2.15;;;3.30;81.00;;;;;;5039406;28;20069;-68
2024/01/27 06:38:51;;;;;;;3.03;2.72;;;3.30;81.10;;;;;;5026687;28;20026;-67
2024/01/27 06:41:17;;;;;;;4.38;2.45;;;3.30;81.10;;;;;;5028249;28;20132;-67
2024/01/27 06:43:43;;;;;;;5.05;2.55;;;3.30;81.10;;;;;;5062112;28;20033;-67
2024/01/27 06:46:09;;;;;;;4.43;2.38;;;3.30;81.10;;;;;;5039103;28;20431;-68
2024/01/27 06:48:34;;;;;;;20.98;2.22;;;3.30;81.20;;;;;;5029760;28;20499;-67
2024/01/27 06:51:00;;;;;;;6.07;2.00;;;3.30;81.20;;;;;;5030853;28;20033;-68
2024/01/27 06:53:26;;;;;;;4.03;1.98;;;3.20;81.10;;;;;;5034345;28;20075;-68
2024/01/27 06:55:51;;;;;;;4.40;2.75;;;3.30;81.10;;;;;;5032198;28;20037;-68
2024/01/27 06:58:17;;;;;;;6.40;2.85;;;3.20;80.90;;;;;;5031040;28;20105;-67
2024/01/27 07:00:44;;;;;;;6.10;2.55;;;3.20;80.90;;;;;;5032869;28;20039;-67
2024/01/27 07:03:10;;;;;;;3.95;2.38;;;3.20;81.00;;;;;;5062101;28;20026;-67
2024/01/27 07:05:40;;;;;;;5.18;3.15;;;3.20;81.00;;;;;;5032757;28;20040;-67
2024/01/27 07:08:07;;;;;;;10.30;2.55;;;3.10;81.00;;;;;;5031006;28;20046;-67
2024/01/27 07:10:33;;;;;;;3.97;2.65;;;3.10;81.00;;;;;;5032611;28;20021;-68
2024/01/27 07:12:59;;;;;;;2.67;2.05;;;3.10;81.00;;;;;;5031688;28;20087;-67
2024/01/27 07:15:24;;;;;;;6.28;3.13;;;3.10;81.10;;;;;;5037502;28;20033;-67
2024/01/27 07:17:50;;;;;;;3.03;2.45;;;3.10;81.10;;;;;;5032993;28;20421;-68
2024/01/27 07:20:16;;;;;;;3.45;2.40;;;3.10;81.10;;;;;;5034815;28;20067;-68
2024/01/27 07:22:42;;;;;;;5.88;2.83;;;3.10;81.10;;;;;;5032550;28;20025;-68
2024/01/27 07:25:10;;;;;;;5.65;3.15;;;3.10;81.10;;;;;;5033322;28;20055;-67
2024/01/27 07:27:36;;;;;;;5.50;3.58;;;3.10;81.20;;;;;;5029300;28;20137;-68
2024/01/27 07:30:03;;;;;;;3.33;2.38;;;3.10;81.20;;;;;;5028322;28;20124;-68
2024/01/27 07:32:28;;;;;;;5.18;2.45;;;3.10;81.30;;;;;;5063966;28;20382;-68
2024/01/27 07:34:54;;;;;;;6.20;2.38;;;3.10;81.40;;;;;;5037778;28;20090;-68
2024/01/27 07:37:20;;;;;;;6.57;3.03;;;3.10;81.40;;;;;;5039802;28;20082;-68
2024/01/27 07:39:48;;;;;;;3.58;2.67;;;3.10;81.70;;;;;;5034257;28;20025;-67
2024/01/27 07:42:15;;;;;;;7.75;2.90;;;3.20;81.80;;;;;;5034070;28;20036;-66
2024/01/27 07:44:41;;;;;;;4.88;3.03;;;3.20;81.80;;;;;;5032370;28;20044;-67
2024/01/27 07:47:08;;;;;;;6.70;3.70;;;3.30;81.80;;;;;;5036200;28;20469;-67
2024/01/27 07:49:34;;;;;;;6.88;3.03;;;3.40;81.70;;;;;;5034648;28;20032;-67
2024/01/27 07:52:00;;;;;;;4.75;3.38;;;3.40;81.80;;;;;;5034594;28;20025;-66
2024/01/27 07:54:26;;;;;;;4.75;2.28;;;3.50;81.70;;;;;;5029413;28;20167;-66
2024/01/27 07:56:51;;;;;;;2.85;2.50;;;3.50;81.70;;;;;;5038024;28;20086;-67
2024/01/27 07:59:17;;;;;;;8.13;3.17;;;3.60;81.80;;;;;;5040212;28;20044;-67
2024/01/27 08:01:44;;;;;;;5.93;3.03;;;3.60;82.00;;;;;;5036284;28;20029;-67
2024/01/27 08:04:10;;;;;;;3.42;2.47;;;3.70;82.00;;;;;;5027064;28;20076;-67
2024/01/27 08:06:47;;;;;;;5.70;3.05;;;3.70;81.80;;;;;;5024225;28;20041;-68
2024/01/27 08:09:13;;;;;;;4.18;2.83;;;3.80;81.90;;;;;;5028162;28;20028;-68
2024/01/27 08:11:38;;;;;;;5.13;3.20;;;3.80;81.80;;;;;;5026605;28;20033;-68
2024/01/27 08:14:04;;;;;;;5.50;2.97;;;3.90;81.90;;;;;;5036990;28;20026;-68
2024/01/27 08:16:29;;;;;;;6.22;3.25;;;3.90;81.90;;;;;;5034877;28;20353;-67
2024/01/27 08:18:55;;;;;;;4.63;3.05;;;3.80;81.90;;;;;;5021927;28;20060;-67
2024/01/27 08:21:21;;;;;;;3.92;2.13;;;3.90;81.90;;;;;;5004396;28;20111;-67
2024/01/27 08:23:47;;;;;;;5.35;2.60;;;3.90;81.90;;;;;;5029195;28;20052;-67
2024/01/27 08:26:13;;;;;;;6.65;3.08;;;3.90;82.00;;;;;;5018754;28;20516;-67
2024/01/27 08:28:38;;;;;;;6.78;2.47;;;3.90;82.00;;;;;;5043161;28;20017;-68
2024/01/27 08:31:04;;;;;;;8.55;3.30;;;4.00;82.20;;;;;;5039373;28;20401;-66
2024/01/27 08:33:30;;;;;;;3.53;3.03;;;4.00;82.20;;;;;;5035268;28;20022;-67
2024/01/27 08:35:56;;;;;;;8.63;3.95;;;4.10;82.10;;;;;;5030326;28;20068;-69
2024/01/27 08:38:22;;;;;;;5.13;2.78;;;4.10;82.20;;;;;;5029658;28;20025;-68
2024/01/27 08:40:48;;;;;;;5.10;3.10;;;4.10;82.40;;;;;;5033865;28;20551;-68
2024/01/27 08:43:13;;;;;;;4.75;2.38;;;4.10;82.30;;;;;;5028503;28;20021;-69
2024/01/27 08:45:39;;;;;;;7.50;3.15;;;4.20;82.40;;;;;;5024180;28;20040;-69
2024/01/27 08:48:06;;;;;;;4.10;3.60;;;4.30;82.40;;;;;;5027101;28;20025;-69
2024/01/27 08:50:31;;;;;;;9.70;3.83;;;4.30;82.40;;;;;;5028325;28;20034;-68
2024/01/27 08:52:57;;;;;;;13.45;4.22;;;4.40;82.50;;;;;;5024149;28;20029;-69
2024/01/27 08:55:24;;;;;;;9.32;3.88;;;4.50;82.70;;;;;;5029865;28;20036;-68
2024/01/27 08:57:50;;;;;;;9.40;4.43;;;4.50;82.80;;;;;;5024947;28;20033;-68
2024/01/27 09:00:16;;;;;;;5.75;3.58;;;4.60;82.90;;;;;;5026180;28;20030;-69
2024/01/27 09:02:45;;;;;;;5.10;3.47;;;4.60;82.90;;;;;;5024612;28;20096;-68
2024/01/27 09:05:11;;;;;;;7.40;3.85;;;4.70;82.90;;;;;;5028420;28;20108;-68
2024/01/27 09:07:37;;;;;;;6.90;3.60;;;4.70;82.90;;;;;;5034032;28;20196;-69
2024/01/27 09:10:03;;;;;;;8.27;4.22;;;4.70;83.00;;;;;;5012113;28;20032;-67
2024/01/27 09:12:29;;;;;;;6.25;4.03;;;4.80;83.10;;;;;;5022793;28;20048;-70
2024/01/27 09:14:54;;;;;;;7.03;4.18;;;4.80;83.20;;;;;;5032601;28;20048;-67
2024/01/27 09:17:20;;;;;;;8.68;5.00;;;4.90;83.30;;;;;;5023075;28;20100;-64
2024/01/27 09:19:46;;;;;;;8.57;3.58;;;5.00;83.30;;;;;;5018295;28;20485;-64
2024/01/27 09:22:12;;;;;;;8.48;4.20;;;5.00;83.20;;;;;;5061983;28;20043;-65
2024/01/27 09:24:38;;;;;;;7.75;3.63;;;5.00;83.10;;;;;;5033190;28;20500;-66
2024/01/27 09:27:05;;;;;;;9.27;4.95;;;5.10;83.20;;;;;;5024259;28;20053;-66
2024/01/27 09:29:30;;;;;;;11.30;5.07;;;5.20;83.10;;;;;;5034420;28;20025;-66
2024/01/27 09:31:56;;;;;;;6.13;3.83;;;5.30;83.00;;;;;;5028589;28;20396;-68
2024/01/27 09:34:22;;;;;;;6.75;3.75;;;5.40;82.80;;;;;;5025874;28;20500;-69
2024/01/27 09:36:47;;;;;;;4.50;3.22;;;5.50;82.70;;;;;;5027422;28;20473;-67
2024/01/27 09:39:13;;;;;;;6.97;4.03;;;5.50;82.50;;;;;;5060418;28;20624;-67
2024/01/27 09:41:40;;;;;;;9.07;3.80;;;5.50;82.50;;;;;;5027394;28;20026;-67
2024/01/27 09:44:06;;;;;;;7.32;4.22;;;5.60;82.50;;;;;;5030084;28;20028;-68
2024/01/27 09:46:32;;;;;;;8.30;3.53;;;5.70;82.50;;;;;;5027812;28;20045;-68
2024/01/27 09:48:58;;;;;;;9.00;4.20;;;5.80;82.30;;;;;;5029469;28;20032;-68
2024/01/27 09:51:25;;;;;;;13.13;3.63;;;5.80;82.20;;;;;;5031995;28;20889;-68
2024/01/27 09:53:54;;;;;;;6.65;4.13;;;5.90;82.20;;;;;;5029853;28;20044;-69
2024/01/27 09:56:20;;;;;;;6.70;3.67;;;6.00;82.10;;;;;;5026903;28;20021;-68
2024/01/27 09:58:49;;;;;;;13.13;4.65;;;6.10;82.00;;;;;;5034567;28;20253;-67
2024/01/27 10:01:20;;;;;;;7.25;3.90;;;6.30;81.70;;;;;;5020194;28;20037;-67
2024/01/27 10:03:47;;;;;;;12.88;3.80;;;6.40;81.40;;;;;;5028238;28;20032;-68
2024/01/27 10:06:14;;;;;;;7.45;4.47;;;6.50;81.10;;;;;;5027839;28;20048;-68
2024/01/27 10:08:40;;;;;;;13.50;4.40;;;6.60;81.00;;;;;;5061837;28;20026;-67
2024/01/27 10:11:10;;;;;;;5.07;3.63;;;6.60;80.70;;;;;;5028996;28;20389;-67
2024/01/27 10:13:40;;;;;;;7.00;3.78;;;6.70;80.80;;;;;;5027822;28;20388;-67
2024/01/27 10:16:08;;;;;;;12.15;4.45;;;6.80;80.60;;;;;;5034740;28;20167;-66
2024/01/27 10:18:34;;;;;;;13.75;4.40;;;7.00;80.50;;;;;;5031026;28;20033;-68
2024/01/27 10:21:00;;;;;;;8.68;3.50;;;7.10;80.10;;;;;;5030999;28;20030;-68
2024/01/27 10:23:26;;;;;;;9.98;4.10;;;7.30;80.00;;;;;;5071991;28;20528;-68
2024/01/27 10:25:52;;;;;;;7.00;3.65;;;7.40;79.50;;;;;;5035863;28;20044;-68
2024/01/27 10:28:18;;;;;;;11.25;3.80;;;7.50;79.30;;;;;;5035224;28;20409;-68
2024/01/27 10:30:45;;;;;;;9.02;3.95;;;7.50;79.40;;;;;;5032657;28;20032;-68
2024/01/27 10:33:14;;;;;;;9.88;4.47;;;7.70;79.00;;;;;;5036747;28;20032;-68
2024/01/27 10:35:43;;;;;;;6.93;3.42;;;7.70;78.20;;;;;;5031279;28;20028;-69
2024/01/27 10:38:09;;;;;;;5.70;4.22;;;7.70;78.40;;;;;;5031556;28;20021;-68
2024/01/27 10:40:38;;;;;;;7.60;3.90;;;7.80;78.30;;;;;;5034149;28;20449;-68
2024/01/27 10:43:06;;;;;;;6.72;3.30;;;7.90;78.20;;;;;;5037811;28;20021;-69
2024/01/27 10:45:38;;;;;;;8.68;3.92;;;8.10;78.10;;;;;;5030335;28;20061;-67
2024/01/27 10:48:05;;;;;;;;;;;8.20;77.50;;;;;;5037296;28;20589;-68
2024/01/27 10:50:34;;;;;;;8.23;4.05;;;8.20;77.10;;;;;;5045785;28;19963;-67
2024/01/27 10:53:03;;;;;;;10.18;3.90;;;8.30;77.40;;;;;;5033032;28;20021;-68
2024/01/27 10:55:29;;;;;;;6.68;3.38;;;8.50;77.70;;;;;;5030789;28;20110;-68
2024/01/27 10:57:58;;;;;;;6.97;4.03;;;8.70;77.70;;;;;;5043977;28;20484;-67
2024/01/27 11:00:24;;;;;;;8.32;3.25;;;8.90;77.30;;;;;;5042813;28;20036;-67
2024/01/27 11:02:54;;;;;;;10.75;3.40;;;9.20;76.40;;;;;;5042602;28;20032;-67
2024/01/27 11:05:21;;;;;;;11.90;4.10;;;9.70;75.20;;;;;;5037424;28;20055;-67
2024/01/27 11:07:47;;;;;;;9.20;4.47;;;10.50;73.10;;;;;;5029045;28;20107;-69
2024/01/27 11:10:12;;;;;;;6.13;3.50;;;11.50;69.20;;;;;;5031975;28;20028;-68
2024/01/27 11:12:39;;;;;;;7.60;3.05;;;12.90;65.90;;;;;;5034275;28;20041;-68
2024/01/27 11:15:06;;;;;;;4.85;2.53;;;14.60;61.40;;;;;;5029822;28;20361;-68
2024/01/27 11:17:42;;;;;;;8.35;3.58;;;15.60;57.80;;;;;;5030670;28;20060;-67
2024/01/27 11:20:09;;;;;;;7.00;2.72;;;16.70;57.00;;;;;;5028639;28;20029;-68
2024/01/27 11:22:34;;;;;;;6.88;3.63;;;17.70;54.60;;;;;;5030862;28;20310;-68
2024/01/27 11:25:08;;;;;;;5.07;2.90;;;18.70;52.50;;;;;;5030746;28;20447;-68
2024/01/27 11:27:35;;;;;;;4.60;2.70;;;19.40;50.80;;;;;;5063986;28;20072;-68
2024/01/27 11:30:00;;;;;;;7.00;2.53;;;19.90;49.00;;;;;;5037820;28;20053;-68
2024/01/27 11:32:27;;;;;;;3.83;2.20;;;20.10;48.30;;;;;;5029874;28;20057;-68
2024/01/27 11:34:52;;;;;;;10.50;2.92;;;20.60;48.70;;;;;;5030752;28;20031;-69
2024/01/27 11:37:24;;;;;;;8.05;3.30;;;21.00;45.60;;;;;;5033066;28;20029;-67
2024/01/27 11:39:51;;;;;;;6.63;3.70;;;21.00;44.90;;;;;;5034946;28;20125;-67
2024/01/27 11:42:17;;;;;;;11.07;2.75;;;20.60;43.60;;;;;;5034929;28;20068;-67
2024/01/27 11:44:44;;;;;;;4.88;2.50;;;20.60;44.90;;;;;;5026147;28;20029;-66
2024/01/27 11:47:18;;;;;;;4.60;2.20;;;21.20;44.80;;;;;;5038549;28;20021;-66
2024/01/27 11:49:54;;;;;;;4.10;2.40;;;21.90;43.50;;;;;;5029899;28;20022;-66
2024/01/27 11:52:20;;;;;;;4.85;2.55;;;22.30;43.10;;;;;;5021937;28;20109;-66
2024/01/27 11:54:46;;;;;;;5.53;3.40;;;22.90;42.60;;;;;;5018048;28;20041;-66
2024/01/27 11:57:12;;;;;;;8.43;3.00;;;23.20;41.00;;;;;;5019386;28;20451;-66
2024/01/27 11:59:37;;;;;;;6.57;2.55;;;22.80;39.90;;;;;;5024546;28;20203;-66
2024/01/27 12:02:03;;;;;;;6.07;2.55;;;22.60;40.00;;;;;;5019292;28;20033;-66
2024/01/27 12:04:29;;;;;;;4.35;2.20;;;22.70;39.70;;;;;;5026940;28;20489;-66
2024/01/27 12:06:55;;;;;;;5.90;2.92;;;22.60;39.70;;;;;;5028384;28;20469;-66
2024/01/27 12:09:22;;;;;;;3.92;2.30;;;22.20;40.00;;;;;;5039589;28;20509;-66
2024/01/27 12:11:48;;;;;;;5.25;2.03;;;22.00;40.50;;;;;;5036541;28;20040;-66
2024/01/27 12:14:13;;;;;;;4.55;2.00;;;22.00;40.30;;;;;;5032135;28;20108;-66
2024/01/27 12:16:40;;;;;;;6.35;3.10;;;21.90;40.30;;;;;;5032843;28;20084;-66
2024/01/27 12:19:05;;;;;;;9.27;3.15;;;21.70;40.50;;;;;;5027968;28;20040;-66
2024/01/27 12:21:31;;;;;;;4.20;2.20;;;22.20;40.70;;;;;;5031176;28;20033;-66
2024/01/27 12:23:57;;;;;;;2.55;2.00;;;22.90;40.40;;;;;;5021055;28;20092;-66
2024/01/27 12:26:26;;;;;;;7.35;2.40;;;23.40;39.10;;;;;;5015169;28;20056;-66
2024/01/27 12:28:51;;;;;;;4.15;2.05;;;23.70;38.20;;;;;;5028600;28;20037;-66
2024/01/27 12:31:18;;;;;;;10.20;2.67;;;23.80;38.20;;;;;;5026178;28;20072;-66
2024/01/27 12:33:58;;;;;;;6.10;2.00;;;24.20;37.90;;;;;;5030289;28;20520;-66
2024/01/27 12:36:24;;;;;;;4.28;1.83;;;24.10;37.00;;;;;;5027480;28;20189;-66
2024/01/27 12:38:54;;;;;;;2.67;2.38;;;23.60;36.70;;;;;;5032960;28;20034;-66
2024/01/27 12:41:19;;;;;;;5.75;2.80;;;23.10;38.20;;;;;;5034032;28;20056;-66
2024/01/27 12:43:45;;;;;;;4.45;1.90;;;23.40;38.20;;;;;;5039122;28;20053;-68
2024/01/27 12:46:12;;;;;;;2.05;1.42;;;23.30;37.70;;;;;;5034381;28;20033;-67
2024/01/27 12:48:38;;;;;;;5.45;2.33;;;22.80;37.70;;;;;;5032674;28;20021;-67
2024/01/27 12:51:05;;;;;;;4.13;1.80;;;22.20;38.60;;;;;;5035225;28;20021;-67